createdAt,value
2023-03-17T00:00:43.355Z,78.90
2023-03-17T00:03:22.041Z,79.10
2023-03-17T00:05:49.036Z,78.90
2023-03-17T00:08:24.585Z,79.40
2023-03-17T00:10:51.551Z,79.00
2023-03-17T00:13:18.629Z,78.90
2023-03-17T00:15:54.809Z,79.20
2023-03-17T00:18:22.402Z,79.10
2023-03-17T00:20:49.355Z,79.10
2023-03-17T00:23:19.639Z,78.90
2023-03-17T00:25:46.718Z,78.60
2023-03-17T00:28:20.983Z,80.50
2023-03-17T00:30:49.724Z,81.70
2023-03-17T00:33:16.842Z,79.50
2023-03-17T00:35:46.350Z,79.00
2023-03-17T00:38:17.903Z,78.30
2023-03-17T00:43:12.540Z,78.70
2023-03-17T00:45:40.437Z,80.00
2023-03-17T00:48:15.294Z,78.70
2023-03-17T00:50:42.493Z,79.00
2023-03-17T00:53:15.415Z,78.20
2023-03-17T00:55:43.428Z,78.10
2023-03-17T00:58:25.268Z,78.20
2023-03-17T01:00:52.077Z,77.80
2023-03-17T01:03:19.607Z,78.80
2023-03-17T01:05:46.847Z,78.40
2023-03-17T01:08:13.456Z,78.10
2023-03-17T01:10:40.106Z,78.40
2023-03-17T01:13:06.898Z,78.30
2023-03-17T01:15:34.307Z,78.40
2023-03-17T01:18:02.564Z,79.10
2023-03-17T01:20:32.673Z,79.30
2023-03-17T01:23:00.436Z,79.90
2023-03-17T01:25:28.402Z,79.10
2023-03-17T01:27:57.639Z,78.50
2023-03-17T01:30:32.159Z,79.40
2023-03-17T01:32:59.893Z,78.70
2023-03-17T01:35:29.293Z,78.30
2023-03-17T01:37:57.106Z,78.60
2023-03-17T01:40:30.465Z,77.80
2023-03-17T01:43:16.033Z,77.80
2023-03-17T01:46:17.073Z,77.80
2023-03-17T01:48:54.637Z,78.60
2023-03-17T01:51:40.652Z,78.50
2023-03-17T01:54:11.567Z,78.50
2023-03-17T01:56:40.707Z,78.00
2023-03-17T01:59:11.399Z,78.30
2023-03-17T02:01:43.705Z,78.40
2023-03-17T02:04:11.727Z,78.80
2023-03-17T02:06:47.407Z,78.30
2023-03-17T02:09:21.786Z,78.30
2023-03-17T02:11:49.113Z,78.40
2023-03-17T02:14:15.670Z,77.70
2023-03-17T02:16:44.917Z,77.80
2023-03-17T02:19:11.651Z,78.40
2023-03-17T02:21:43.854Z,78.30
2023-03-17T02:24:20.548Z,78.80
2023-03-17T02:26:49.392Z,78.50
2023-03-17T02:29:16.675Z,78.80
2023-03-17T02:31:45.262Z,78.50
2023-03-17T02:34:11.888Z,78.50
2023-03-17T02:36:38.584Z,78.60
2023-03-17T02:39:05.212Z,79.20
2023-03-17T02:41:31.877Z,78.70
2023-03-17T02:43:58.542Z,78.70
2023-03-17T02:46:25.191Z,78.60
2023-03-17T02:48:51.860Z,79.00
2023-03-17T02:51:18.889Z,78.90
2023-03-17T02:53:45.524Z,78.90
2023-03-17T02:56:12.134Z,79.70
2023-03-17T02:58:38.682Z,79.10
2023-03-17T03:01:05.629Z,79.40
2023-03-17T03:03:32.864Z,78.60
2023-03-17T03:06:01.520Z,80.30
2023-03-17T03:08:29.796Z,80.80
2023-03-17T03:10:56.688Z,82.50
2023-03-17T03:13:23.571Z,82.10
2023-03-17T03:15:50.249Z,81.50
2023-03-17T03:18:16.882Z,81.20
2023-03-17T03:20:44.507Z,80.90
2023-03-17T03:23:11.677Z,81.90
2023-03-17T03:25:38.560Z,81.20
2023-03-17T03:28:08.032Z,81.30
2023-03-17T03:30:36.720Z,81.80
2023-03-17T03:33:04.385Z,81.90
2023-03-17T03:35:31.202Z,81.90
2023-03-17T03:37:58.190Z,83.00
2023-03-17T03:40:25.440Z,83.30
2023-03-17T03:42:52.455Z,82.20
2023-03-17T03:45:19.433Z,82.40
2023-03-17T03:47:46.055Z,82.90
2023-03-17T03:50:13.216Z,83.40
2023-03-17T03:52:40.108Z,82.90
2023-03-17T03:55:07.244Z,83.10
2023-03-17T03:57:33.888Z,83.00
2023-03-17T04:00:00.605Z,83.10
2023-03-17T04:02:27.520Z,83.20
2023-03-17T04:04:54.241Z,83.90
2023-03-17T04:07:21.305Z,83.10
2023-03-17T04:09:51.008Z,82.70
2023-03-17T04:12:18.080Z,83.10
2023-03-17T04:14:45.646Z,83.00
2023-03-17T04:17:12.975Z,83.40
2023-03-17T04:19:40.293Z,84.40
2023-03-17T04:22:08.961Z,84.00
2023-03-17T04:24:35.672Z,83.50
2023-03-17T04:27:05.503Z,84.20
2023-03-17T04:29:32.444Z,83.70
2023-03-17T04:31:59.060Z,85.40
2023-03-17T04:34:26.494Z,84.70
2023-03-17T04:36:53.115Z,85.60
2023-03-17T04:39:19.756Z,85.50
2023-03-17T04:41:46.432Z,85.20
2023-03-17T04:44:13.323Z,85.30
2023-03-17T04:46:40.024Z,85.90
2023-03-17T04:49:06.931Z,85.60
2023-03-17T04:51:33.657Z,85.20
2023-03-17T04:54:01.378Z,85.80
2023-03-17T04:56:29.044Z,85.80
2023-03-17T04:58:57.052Z,85.90
2023-03-17T05:01:23.893Z,85.60
2023-03-17T05:03:50.554Z,84.90
2023-03-17T05:06:17.515Z,85.10
2023-03-17T05:08:44.843Z,85.80
2023-03-17T05:11:12.858Z,85.50
2023-03-17T05:13:42.912Z,85.10
2023-03-17T05:16:10.311Z,85.90
2023-03-17T05:18:37.596Z,86.30
2023-03-17T05:21:06.191Z,86.30
2023-03-17T05:23:32.845Z,86.50
2023-03-17T05:25:59.976Z,86.40
2023-03-17T05:28:26.707Z,86.10
2023-03-17T05:30:54.163Z,86.20
2023-03-17T05:33:21.629Z,86.50
2023-03-17T05:35:48.546Z,86.20
2023-03-17T05:38:18.751Z,86.60
2023-03-17T05:40:45.631Z,87.20
2023-03-17T05:43:12.451Z,86.80
2023-03-17T05:45:39.166Z,86.80
2023-03-17T05:48:06.196Z,86.60
2023-03-17T05:50:33.310Z,87.90
2023-03-17T05:52:59.930Z,87.30
2023-03-17T05:55:26.635Z,87.80
2023-03-17T05:57:53.519Z,88.50
2023-03-17T06:00:21.382Z,88.10
2023-03-17T06:02:48.215Z,89.10
2023-03-17T06:05:15.050Z,88.50
2023-03-17T06:07:52.326Z,87.80
2023-03-17T06:10:21.822Z,88.30
2023-03-17T06:12:48.503Z,87.90
2023-03-17T06:15:16.455Z,88.80
2023-03-17T06:17:43.385Z,88.00
2023-03-17T06:20:11.521Z,87.80
2023-03-17T06:22:39.721Z,87.80
2023-03-17T06:25:10.605Z,87.50
2023-03-17T06:27:37.874Z,87.60
2023-03-17T06:30:06.950Z,87.40
2023-03-17T06:32:33.906Z,86.80
2023-03-17T06:35:01.238Z,86.70
2023-03-17T06:37:28.462Z,87.10
2023-03-17T06:39:55.488Z,85.70
2023-03-17T06:42:22.037Z,84.70
2023-03-17T06:44:52.417Z,85.90
2023-03-17T06:47:19.883Z,84.20
2023-03-17T06:49:46.450Z,83.90
2023-03-17T06:52:13.916Z,82.60
2023-03-17T06:54:41.224Z,82.80
2023-03-17T06:57:09.411Z,79.70
2023-03-17T06:59:36.294Z,80.00
2023-03-17T07:02:03.569Z,78.40
2023-03-17T07:04:31.171Z,77.80
2023-03-17T07:06:57.878Z,80.00
2023-03-17T07:09:24.438Z,78.90
2023-03-17T07:11:51.403Z,77.50
2023-03-17T07:14:18.559Z,76.70
2023-03-17T07:16:45.355Z,77.00
2023-03-17T07:19:12.046Z,77.30
2023-03-17T07:21:38.557Z,75.50
2023-03-17T07:24:05.334Z,74.90
2023-03-17T07:26:31.901Z,74.20
2023-03-17T07:29:00.825Z,74.50
2023-03-17T07:31:28.172Z,74.20
2023-03-17T07:33:57.383Z,74.30
2023-03-17T07:36:24.086Z,72.50
2023-03-17T07:38:50.915Z,73.00
2023-03-17T07:41:17.510Z,71.50
2023-03-17T07:43:44.223Z,70.90
2023-03-17T07:46:10.922Z,71.20
2023-03-17T07:48:40.683Z,71.30
2023-03-17T07:51:10.722Z,70.00
2023-03-17T07:53:37.244Z,70.30
2023-03-17T07:56:04.461Z,68.60
2023-03-17T07:58:31.106Z,66.10
2023-03-17T08:00:57.713Z,65.10
2023-03-17T08:03:24.298Z,62.80
2023-03-17T08:05:55.186Z,60.80
2023-03-17T08:08:22.271Z,60.40
2023-03-17T08:10:49.492Z,56.90
2023-03-17T08:13:16.478Z,57.60
2023-03-17T08:15:43.414Z,57.60
2023-03-17T08:18:10.090Z,56.40
2023-03-17T08:20:37.715Z,55.90
2023-03-17T08:23:04.967Z,55.90
2023-03-17T08:25:31.922Z,54.30
2023-03-17T08:27:59.072Z,51.80
2023-03-17T08:30:25.905Z,52.50
2023-03-17T08:32:53.828Z,51.90
2023-03-17T08:35:20.740Z,53.10
2023-03-17T08:37:48.606Z,53.30
2023-03-17T08:40:18.290Z,51.10
2023-03-17T08:42:45.927Z,51.00
2023-03-17T08:45:13.777Z,51.20
2023-03-17T08:47:40.506Z,51.10
2023-03-17T08:50:11.218Z,52.60
2023-03-17T08:52:38.044Z,52.80
2023-03-17T08:55:05.002Z,53.30
2023-03-17T08:57:31.968Z,52.90
2023-03-17T08:59:58.902Z,51.40
2023-03-17T09:02:25.613Z,49.40
2023-03-17T09:04:52.702Z,48.40
2023-03-17T09:07:19.913Z,47.30
2023-03-17T09:09:46.532Z,46.40
2023-03-17T09:12:13.236Z,45.10
2023-03-17T09:14:44.143Z,44.10
2023-03-17T09:17:12.264Z,43.80
2023-03-17T09:19:38.868Z,43.70
2023-03-17T09:22:05.579Z,44.80
2023-03-17T09:24:32.133Z,44.00
2023-03-17T09:26:59.925Z,43.70
2023-03-17T09:29:27.154Z,43.40
2023-03-17T09:31:56.881Z,43.50
2023-03-17T09:34:25.488Z,43.50
2023-03-17T09:36:54.134Z,43.30
2023-03-17T09:39:22.923Z,44.10
2023-03-17T09:41:52.503Z,45.40
2023-03-17T09:44:42.271Z,44.00
2023-03-17T09:47:22.554Z,43.60
2023-03-17T09:49:58.388Z,46.40
2023-03-17T09:52:29.069Z,46.00
2023-03-17T09:54:56.751Z,46.40
2023-03-17T09:57:31.180Z,43.50
2023-03-17T10:00:05.556Z,45.90
2023-03-17T10:02:35.244Z,45.50
2023-03-17T10:05:13.172Z,47.90
2023-03-17T10:07:50.140Z,46.60
2023-03-17T10:10:34.603Z,48.50
2023-03-17T10:13:43.026Z,47.90
2023-03-17T10:16:17.398Z,49.00
2023-03-17T10:18:53.002Z,49.60
2023-03-17T10:21:25.380Z,48.70
2023-03-17T10:23:53.080Z,50.00
2023-03-17T10:26:24.797Z,49.70
2023-03-17T10:28:52.790Z,50.50
2023-03-17T10:31:28.494Z,50.60
2023-03-17T10:33:58.322Z,50.70
2023-03-17T10:36:42.359Z,51.50
2023-03-17T10:39:12.758Z,50.70
2023-03-17T10:41:41.166Z,51.50
2023-03-17T10:44:22.700Z,51.70
2023-03-17T10:46:55.292Z,52.50
2023-03-17T10:49:24.346Z,52.70
2023-03-17T10:51:55.634Z,52.60
2023-03-17T10:54:25.160Z,52.50
2023-03-17T10:57:01.221Z,53.10
2023-03-17T11:02:17.874Z,53.20
2023-03-17T11:04:44.598Z,52.90
2023-03-17T11:07:20.279Z,53.60
2023-03-17T11:09:51.518Z,53.90
2023-03-17T11:12:21.118Z,54.20
2023-03-17T11:14:49.076Z,54.10
2023-03-17T11:17:36.136Z,53.80
2023-03-17T11:20:05.623Z,54.20
2023-03-17T11:22:40.125Z,53.90
2023-03-17T11:25:16.124Z,54.00
2023-03-17T11:28:16.874Z,54.00
2023-03-17T11:31:07.318Z,54.20
2023-03-17T11:33:48.107Z,54.00
2023-03-17T11:36:24.627Z,54.10
2023-03-17T11:39:13.512Z,54.60
2023-03-17T11:42:17.034Z,55.00
2023-03-17T11:45:05.512Z,55.10
2023-03-17T11:47:53.930Z,54.20
2023-03-17T11:50:27.880Z,54.40
2023-03-17T11:53:11.611Z,54.50
2023-03-17T11:55:58.539Z,55.00
2023-03-17T11:58:33.430Z,55.30
2023-03-17T12:01:02.921Z,55.20
2023-03-17T12:03:46.499Z,55.60
2023-03-17T12:06:17.858Z,55.80
2023-03-17T12:09:09.994Z,55.70
2023-03-17T12:11:41.410Z,55.80
2023-03-17T12:14:28.438Z,55.40
2023-03-17T12:17:21.618Z,55.70
2023-03-17T12:20:06.365Z,55.80
2023-03-17T12:22:46.176Z,55.70
2023-03-17T12:25:34.864Z,55.50
2023-03-17T12:28:30.104Z,55.10
2023-03-17T12:31:06.627Z,55.60
2023-03-17T12:33:48.572Z,55.50
2023-03-17T12:36:17.598Z,56.10
2023-03-17T12:38:51.405Z,56.50
2023-03-17T12:41:48.911Z,56.90
2023-03-17T12:44:18.507Z,56.80
2023-03-17T12:47:32.355Z,56.30
2023-03-17T12:50:16.798Z,57.00
2023-03-17T12:53:14.317Z,56.50
2023-03-17T12:55:45.198Z,55.70
2023-03-17T12:58:28.080Z,56.50
2023-03-17T13:01:17.191Z,57.10
2023-03-17T13:04:05.795Z,57.20
2023-03-17T13:06:40.753Z,56.90
2023-03-17T13:09:27.116Z,57.00
2023-03-17T13:11:54.281Z,56.70
2023-03-17T13:14:40.998Z,57.20
2023-03-17T13:17:28.629Z,57.30
2023-03-17T13:19:57.669Z,56.20
2023-03-17T13:22:34.238Z,56.20
2023-03-17T13:25:12.896Z,56.10
2023-03-17T13:27:39.626Z,56.40
2023-03-17T13:30:41.523Z,56.80
2023-03-17T13:33:11.318Z,56.50
2023-03-17T13:36:05.852Z,56.80
2023-03-17T13:38:41.421Z,57.00
2023-03-17T13:41:41.958Z,57.20
2023-03-17T13:44:33.928Z,58.00
2023-03-17T13:47:31.687Z,57.50
2023-03-17T13:50:06.513Z,56.70
2023-03-17T13:52:55.214Z,56.10
2023-03-17T13:55:24.820Z,56.10
2023-03-17T13:58:14.778Z,56.00
2023-03-17T14:00:44.697Z,57.10
2023-03-17T14:03:32.404Z,56.70
2023-03-17T14:06:03.150Z,55.20
2023-03-17T14:08:41.881Z,56.90
2023-03-17T14:11:22.255Z,56.50
2023-03-17T14:14:07.884Z,55.80
2023-03-17T14:16:42.444Z,56.10
2023-03-17T14:19:21.015Z,56.00
2023-03-17T14:21:47.807Z,54.70
2023-03-17T14:24:44.213Z,54.90
2023-03-17T14:27:14.968Z,55.00
2023-03-17T14:29:41.802Z,55.10
2023-03-17T14:32:14.821Z,55.30
2023-03-17T14:35:12.371Z,55.70
2023-03-17T14:37:39.196Z,55.00
2023-03-17T14:40:20.306Z,54.50
2023-03-17T14:42:46.877Z,54.10
2023-03-17T14:45:21.640Z,54.70
2023-03-17T14:47:50.767Z,55.50
2023-03-17T14:50:25.909Z,55.50
2023-03-17T14:52:52.551Z,54.90
2023-03-17T14:55:20.071Z,56.10
2023-03-17T14:57:53.344Z,56.10
2023-03-17T15:00:44.786Z,55.70
2023-03-17T15:03:21.552Z,55.30
2023-03-17T15:05:49.622Z,55.40
2023-03-17T15:08:40.371Z,55.60
2023-03-17T15:11:07.960Z,55.30
2023-03-17T15:13:38.451Z,55.40
2023-03-17T15:16:24.837Z,55.60
2023-03-17T15:19:18.458Z,57.00
2023-03-17T15:21:45.412Z,56.30
2023-03-17T15:24:41.709Z,56.70
2023-03-17T15:27:17.436Z,57.40
2023-03-17T15:29:45.370Z,57.60
2023-03-17T15:32:21.017Z,57.30
2023-03-17T15:34:48.564Z,57.50
2023-03-17T15:37:24.056Z,57.00
2023-03-17T15:39:53.009Z,57.30
2023-03-17T15:42:22.127Z,57.30
2023-03-17T15:44:48.945Z,56.70
2023-03-17T15:47:17.795Z,55.70
2023-03-17T15:49:45.554Z,55.70
2023-03-17T15:52:26.499Z,55.80
2023-03-17T15:54:58.112Z,56.60
2023-03-17T15:57:26.182Z,57.40
2023-03-17T15:59:52.953Z,58.00
2023-03-17T16:02:37.186Z,57.50
2023-03-17T16:05:31.644Z,57.20
2023-03-17T16:07:58.371Z,56.70
2023-03-17T16:10:28.543Z,57.70
2023-03-17T16:12:55.865Z,57.60
2023-03-17T16:15:25.940Z,57.10
2023-03-17T16:17:55.372Z,57.00
2023-03-17T16:20:28.516Z,57.10
2023-03-17T16:22:58.498Z,56.90
2023-03-17T16:25:30.045Z,57.30
2023-03-17T16:27:59.029Z,57.90
2023-03-17T16:30:28.717Z,57.30
2023-03-17T16:33:02.437Z,58.00
2023-03-17T16:35:29.152Z,58.40
2023-03-17T16:37:56.134Z,59.40
2023-03-17T16:40:26.853Z,59.80
2023-03-17T16:42:54.135Z,59.90
2023-03-17T16:45:27.341Z,60.10
2023-03-17T16:47:55.370Z,60.40
2023-03-17T16:50:24.817Z,61.00
2023-03-17T16:52:51.398Z,61.50
2023-03-17T16:55:21.655Z,61.60
2023-03-17T16:57:51.014Z,62.00
2023-03-17T17:00:22.075Z,62.20
2023-03-17T17:02:49.826Z,62.40
2023-03-17T17:05:29.485Z,62.60
2023-03-17T17:07:57.471Z,64.60
2023-03-17T17:10:26.427Z,63.20
2023-03-17T17:12:53.567Z,64.20
2023-03-17T17:15:21.538Z,64.20
2023-03-17T17:17:51.716Z,65.50
2023-03-17T17:20:19.995Z,65.20
2023-03-17T17:22:46.617Z,65.90
2023-03-17T17:25:13.175Z,66.30
2023-03-17T17:27:41.736Z,66.10
2023-03-17T17:30:11.704Z,68.10
2023-03-17T17:32:38.614Z,67.30
2023-03-17T17:35:06.192Z,68.10
2023-03-17T17:37:33.129Z,67.50
2023-03-17T17:39:59.800Z,68.80
2023-03-17T17:42:26.725Z,68.10
2023-03-17T17:44:53.375Z,67.90
2023-03-17T17:47:20.359Z,68.80
2023-03-17T17:49:46.926Z,69.60
2023-03-17T17:52:13.505Z,67.80
2023-03-17T17:54:40.039Z,67.20
2023-03-17T17:57:06.941Z,67.00
2023-03-17T17:59:33.508Z,67.00
2023-03-17T18:02:01.003Z,70.30
2023-03-17T18:04:27.542Z,69.70
2023-03-17T18:06:54.093Z,68.70
2023-03-17T18:09:21.466Z,69.00
2023-03-17T18:11:48.467Z,67.30
2023-03-17T18:14:15.265Z,71.40
2023-03-17T18:16:42.066Z,73.10
2023-03-17T18:19:11.097Z,71.50
2023-03-17T18:21:37.618Z,72.80
2023-03-17T18:24:05.072Z,72.90
2023-03-17T18:26:32.886Z,72.60
2023-03-17T18:28:59.701Z,72.80
2023-03-17T18:31:31.498Z,73.90
2023-03-17T18:34:04.738Z,70.90
2023-03-17T18:36:31.600Z,73.00
2023-03-17T18:38:58.356Z,71.30
2023-03-17T18:41:26.652Z,73.00
2023-03-17T18:43:53.203Z,69.40
2023-03-17T18:46:19.758Z,69.20
2023-03-17T18:48:46.299Z,68.50
2023-03-17T18:51:12.815Z,70.30
2023-03-17T18:53:39.417Z,69.30
2023-03-17T18:56:06.450Z,71.10
2023-03-17T18:58:33.040Z,69.30
2023-03-17T19:01:01.673Z,70.00
2023-03-17T19:03:29.560Z,71.40
2023-03-17T19:05:56.292Z,70.20
2023-03-17T19:08:22.800Z,69.80
2023-03-17T19:10:49.477Z,69.60
2023-03-17T19:13:16.176Z,69.20
2023-03-17T19:15:42.730Z,68.00
2023-03-17T19:18:09.632Z,68.60
2023-03-17T19:20:36.476Z,68.90
2023-03-17T19:23:06.894Z,68.90
2023-03-17T19:25:34.052Z,68.30
2023-03-17T19:28:00.664Z,68.60
2023-03-17T19:30:27.423Z,69.10
2023-03-17T19:32:54.123Z,69.10
2023-03-17T19:35:20.867Z,68.90
2023-03-17T19:37:47.543Z,69.00
2023-03-17T19:40:14.177Z,68.70
2023-03-17T19:42:41.036Z,69.20
2023-03-17T19:45:08.294Z,69.10
2023-03-17T19:47:35.265Z,70.30
2023-03-17T19:50:01.830Z,70.90
2023-03-17T19:52:28.414Z,73.30
2023-03-17T19:54:54.943Z,73.20
2023-03-17T19:57:21.902Z,72.00
2023-03-17T19:59:48.492Z,71.80
2023-03-17T20:02:16.480Z,72.00
2023-03-17T20:04:43.307Z,71.80
2023-03-17T20:07:11.217Z,70.70
2023-03-17T20:09:39.079Z,72.20
2023-03-17T20:12:06.005Z,71.30
2023-03-17T20:14:32.645Z,71.90
2023-03-17T20:16:59.224Z,72.90
2023-03-17T20:19:26.093Z,74.10
2023-03-17T20:21:53.158Z,75.40
2023-03-17T20:24:19.946Z,72.30
2023-03-17T20:26:49.248Z,72.90
2023-03-17T20:29:16.130Z,74.90
2023-03-17T20:31:43.694Z,73.90
2023-03-17T20:34:10.607Z,72.90
2023-03-17T20:36:37.470Z,72.90
2023-03-17T20:39:04.689Z,74.40
2023-03-17T20:41:31.299Z,73.80
2023-03-17T20:43:57.837Z,74.40
2023-03-17T20:46:25.470Z,73.70
2023-03-17T20:48:58.361Z,74.60
2023-03-17T20:51:26.237Z,73.30
2023-03-17T20:53:54.868Z,72.90
2023-03-17T20:56:23.603Z,73.40
2023-03-17T20:58:52.968Z,73.10
2023-03-17T21:01:21.219Z,72.90
2023-03-17T21:03:48.532Z,73.20
2023-03-17T21:06:15.373Z,75.70
2023-03-17T21:08:42.404Z,73.30
2023-03-17T21:11:11.472Z,74.80
2023-03-17T21:13:38.603Z,74.90
2023-03-17T21:16:05.359Z,74.80
2023-03-17T21:18:32.029Z,76.10
2023-03-17T21:20:58.596Z,75.20
2023-03-17T21:23:25.278Z,75.50
2023-03-17T21:25:55.891Z,75.60
2023-03-17T21:28:22.844Z,76.10
2023-03-17T21:30:50.155Z,76.90
2023-03-17T21:33:16.771Z,77.60
2023-03-17T21:35:43.400Z,76.90
2023-03-17T21:38:10.129Z,78.00
2023-03-17T21:40:36.887Z,79.20
2023-03-17T21:43:03.626Z,79.00
2023-03-17T21:45:30.286Z,79.90
2023-03-17T21:47:56.924Z,78.10
2023-03-17T21:50:23.667Z,78.60
2023-03-17T21:52:50.287Z,77.90
2023-03-17T21:55:16.986Z,77.40
2023-03-17T21:57:47.187Z,78.80
2023-03-17T22:00:14.131Z,78.60
2023-03-17T22:02:41.639Z,79.20
2023-03-17T22:05:10.230Z,78.10
2023-03-17T22:07:40.868Z,78.00
2023-03-17T22:10:08.210Z,78.10
2023-03-17T22:12:36.149Z,79.70
2023-03-17T22:15:04.041Z,77.80
2023-03-17T22:17:32.452Z,78.60
2023-03-17T22:19:59.006Z,78.20
2023-03-17T22:22:25.641Z,78.70
2023-03-17T22:24:52.278Z,79.80
2023-03-17T22:27:18.940Z,80.90
2023-03-17T22:29:46.542Z,81.10
2023-03-17T22:32:13.286Z,80.80
2023-03-17T22:34:40.069Z,81.40
2023-03-17T22:37:07.549Z,81.20
2023-03-17T22:39:34.607Z,80.40
2023-03-17T22:42:01.983Z,80.30
2023-03-17T22:44:28.541Z,81.60
2023-03-17T22:46:55.245Z,81.80
2023-03-17T22:49:21.916Z,80.90
2023-03-17T22:51:50.028Z,82.00
2023-03-17T22:54:18.433Z,82.70
2023-03-17T22:56:45.207Z,83.60
2023-03-17T22:59:11.902Z,83.50
2023-03-17T23:01:39.311Z,82.10
2023-03-17T23:04:06.854Z,83.70
2023-03-17T23:06:35.182Z,83.50
2023-03-17T23:09:01.811Z,81.50
2023-03-17T23:11:28.470Z,82.00
2023-03-17T23:13:55.415Z,82.00
2023-03-17T23:16:22.246Z,82.90
2023-03-17T23:18:49.043Z,81.30
2023-03-17T23:21:22.978Z,81.60
2023-03-17T23:23:49.878Z,82.00
2023-03-17T23:26:16.814Z,82.20
2023-03-17T23:28:44.840Z,82.00
2023-03-17T23:31:11.606Z,81.90
2023-03-17T23:33:38.696Z,81.60
2023-03-17T23:36:06.579Z,82.40
2023-03-17T23:38:34.051Z,82.20
2023-03-17T23:41:00.605Z,82.60
2023-03-17T23:43:27.395Z,81.50
2023-03-17T23:45:54.066Z,82.50
2023-03-17T23:48:21.413Z,83.60
2023-03-17T23:50:52.220Z,82.50
2023-03-17T23:53:19.373Z,83.20
2023-03-17T23:55:46.667Z,82.20
2023-03-17T23:58:13.894Z,83.90
